createdAt,value
2019-05-02T00:00:55.668Z,30.40
2019-05-02T00:01:55.669Z,29.70
2019-05-02T00:02:59.787Z,30.40
2019-05-02T00:03:55.653Z,29.60
2019-05-02T00:04:56.991Z,30.10
2019-05-02T00:05:55.616Z,29.70
2019-05-02T00:06:55.631Z,29.60
2019-05-02T00:07:58.531Z,29.60
2019-05-02T00:08:56.519Z,29.00
2019-05-02T00:09:55.586Z,29.50
2019-05-02T00:10:55.564Z,28.40
2019-05-02T00:11:58.918Z,30.00
2019-05-02T00:12:55.541Z,30.00
2019-05-02T00:13:55.555Z,27.80
2019-05-02T00:14:56.510Z,29.70
2019-05-02T00:15:56.510Z,28.40
2019-05-02T00:16:55.492Z,29.10
2019-05-02T00:17:56.850Z,30.20
2019-05-02T00:18:56.486Z,30.60
2019-05-02T00:19:55.481Z,29.20
2019-05-02T00:20:57.123Z,29.80
2019-05-02T00:21:56.440Z,29.60
2019-05-02T00:22:55.430Z,28.50
2019-05-02T00:23:59.162Z,29.20
2019-05-02T00:24:56.418Z,29.20
2019-05-02T00:25:55.439Z,30.00
2019-05-02T00:26:55.984Z,28.30
2019-05-02T00:27:56.376Z,29.60
2019-05-02T00:28:55.368Z,29.00
2019-05-02T00:29:58.825Z,29.80
2019-05-02T00:30:56.356Z,30.40
2019-05-02T00:31:55.346Z,30.70
2019-05-02T00:32:58.299Z,30.70
2019-05-02T00:33:55.314Z,31.10
2019-05-02T00:34:55.302Z,30.00
2019-05-02T00:35:55.303Z,31.20
2019-05-02T00:36:55.284Z,30.60
2019-05-02T00:37:57.479Z,30.10
2019-05-02T00:38:56.271Z,31.40
2019-05-02T00:39:55.264Z,30.90
2019-05-02T00:40:57.395Z,31.10
2019-05-02T00:41:56.231Z,31.50
2019-05-02T00:42:58.317Z,31.50
2019-05-02T00:43:55.211Z,31.80
2019-05-02T00:44:55.190Z,31.40
2019-05-02T00:45:59.731Z,31.80
2019-05-02T00:46:56.168Z,32.40
2019-05-02T00:47:55.176Z,30.60
2019-05-02T00:48:59.933Z,32.20
2019-05-02T00:49:56.146Z,32.80
2019-05-02T00:50:55.127Z,33.10
2019-05-02T00:51:56.627Z,32.40
2019-05-02T00:52:56.105Z,32.70
2019-05-02T00:53:55.100Z,32.20
2019-05-02T00:54:58.740Z,34.00
2019-05-02T00:55:55.084Z,34.10
2019-05-02T00:56:55.076Z,32.10
2019-05-02T00:57:55.763Z,33.80
2019-05-02T00:58:55.043Z,32.80
2019-05-02T00:59:55.033Z,33.60
2019-05-02T01:00:55.035Z,33.80
2019-05-02T01:01:55.013Z,35.40
2019-05-02T01:02:55.003Z,35.60
2019-05-02T01:03:54.991Z,35.40
2019-05-02T01:04:59.292Z,35.90
2019-05-02T01:05:55.999Z,35.80
2019-05-02T01:06:54.960Z,36.10
2019-05-02T01:07:56.037Z,35.20
2019-05-02T01:08:55.938Z,36.30
2019-05-02T01:09:54.929Z,35.90
2019-05-02T01:10:56.812Z,35.50
2019-05-02T01:11:54.921Z,35.80
2019-05-02T01:12:54.907Z,35.00
2019-05-02T01:13:55.659Z,35.40
2019-05-02T01:14:54.866Z,35.10
2019-05-02T01:15:54.863Z,36.40
2019-05-02T01:16:56.274Z,35.60
2019-05-02T01:17:54.852Z,33.60
2019-05-02T01:18:54.834Z,35.50
2019-05-02T01:19:54.845Z,38.50
2019-05-02T01:20:58.082Z,35.40
2019-05-02T01:21:55.801Z,38.20
2019-05-02T01:22:54.802Z,37.30
2019-05-02T01:23:59.006Z,37.70
2019-05-02T01:24:55.772Z,37.80
2019-05-02T01:25:54.771Z,37.50
2019-05-02T01:26:54.775Z,38.10
2019-05-02T01:27:54.750Z,39.90
2019-05-02T01:28:55.746Z,39.50
2019-05-02T01:29:54.722Z,39.80
2019-05-02T01:30:54.700Z,40.20
2019-05-02T01:31:55.880Z,38.30
2019-05-02T01:32:54.678Z,37.80
2019-05-02T01:33:54.690Z,39.30
2019-05-02T01:34:56.328Z,39.60
2019-05-02T01:35:54.647Z,39.60
2019-05-02T01:36:54.656Z,39.50
2019-05-02T01:37:56.012Z,39.40
2019-05-02T01:38:54.626Z,41.70
2019-05-02T01:39:54.605Z,39.00
2019-05-02T01:40:54.871Z,39.60
2019-05-02T01:41:54.594Z,40.40
2019-05-02T01:42:54.574Z,41.70
2019-05-02T01:43:54.985Z,40.10
2019-05-02T01:44:55.554Z,39.70
2019-05-02T01:45:54.552Z,39.50
2019-05-02T01:46:58.802Z,40.20
2019-05-02T01:47:55.532Z,41.40
2019-05-02T01:48:54.511Z,41.00
2019-05-02T01:49:57.177Z,41.60
2019-05-02T01:50:54.501Z,40.90
2019-05-02T01:51:54.483Z,41.80
2019-05-02T01:52:58.558Z,40.30
2019-05-02T01:53:55.471Z,42.30
2019-05-02T01:54:54.448Z,41.90
2019-05-02T01:55:57.763Z,41.40
2019-05-02T01:56:54.427Z,41.40
2019-05-02T01:57:54.406Z,41.80
2019-05-02T01:58:57.704Z,42.40
2019-05-02T01:59:54.407Z,43.20
2019-05-02T02:00:54.386Z,44.20
2019-05-02T02:01:57.915Z,42.30
2019-05-02T02:02:54.888Z,41.40
2019-05-02T02:03:54.354Z,41.80
2019-05-02T02:04:56.842Z,40.40
2019-05-02T02:05:54.327Z,42.80
2019-05-02T02:06:54.325Z,43.10
2019-05-02T02:07:55.477Z,42.90
2019-05-02T02:08:54.304Z,42.70
2019-05-02T02:09:54.315Z,42.10
2019-05-02T02:10:56.122Z,43.70
2019-05-02T02:11:54.285Z,43.80
2019-05-02T02:13:03.359Z,42.30
2019-05-02T02:13:55.253Z,43.90
2019-05-02T02:14:55.538Z,41.90
2019-05-02T02:15:54.228Z,43.30
2019-05-02T02:16:54.223Z,43.70
2019-05-02T02:17:54.198Z,45.10
2019-05-02T02:18:54.199Z,44.80
2019-05-02T02:19:54.177Z,45.00
2019-05-02T02:20:54.177Z,44.80
2019-05-02T02:21:57.511Z,44.20
2019-05-02T02:22:55.146Z,45.00
2019-05-02T02:23:54.135Z,44.10
2019-05-02T02:24:56.024Z,43.70
2019-05-02T02:25:55.114Z,44.40
2019-05-02T02:26:54.114Z,44.40
2019-05-02T02:27:55.010Z,44.90
2019-05-02T02:28:55.084Z,46.50
2019-05-02T02:29:54.306Z,45.30
2019-05-02T02:30:57.798Z,44.20
2019-05-02T02:31:55.052Z,45.90
2019-05-02T02:33:00.539Z,45.00
2019-05-02T02:33:55.045Z,45.60
2019-05-02T02:34:54.020Z,45.10
2019-05-02T02:35:54.059Z,44.90
2019-05-02T02:36:54.021Z,44.20
2019-05-02T02:37:55.693Z,45.20
2019-05-02T02:38:53.988Z,46.70
2019-05-02T02:39:56.300Z,43.90
2019-05-02T02:40:53.950Z,43.70
2019-05-02T02:41:54.262Z,47.40
2019-05-02T02:42:53.946Z,46.20
2019-05-02T02:43:54.642Z,44.70
2019-05-02T02:44:54.907Z,44.40
2019-05-02T02:45:57.796Z,44.30
2019-05-02T02:46:54.896Z,45.20
2019-05-02T02:47:59.851Z,46.90
2019-05-02T02:48:54.906Z,47.30
2019-05-02T02:49:55.880Z,46.00
2019-05-02T02:50:54.854Z,46.60
2019-05-02T02:51:58.120Z,47.40
2019-05-02T02:52:54.845Z,47.30
2019-05-02T02:54:02.879Z,49.10
2019-05-02T02:54:54.814Z,47.10
2019-05-02T02:56:00.803Z,48.00
2019-05-02T02:56:54.785Z,47.60
2019-05-02T02:57:58.345Z,47.90
2019-05-02T02:58:54.772Z,48.20
2019-05-02T03:00:06.709Z,47.80
2019-05-02T03:00:54.746Z,47.00
2019-05-02T03:01:53.729Z,49.50
2019-05-02T03:02:53.719Z,49.70
2019-05-02T03:03:53.719Z,47.60
2019-05-02T03:04:53.710Z,47.50
2019-05-02T03:05:58.830Z,46.40
2019-05-02T03:06:54.679Z,47.30
2019-05-02T03:07:59.334Z,46.70
2019-05-02T03:08:54.671Z,47.30
2019-05-02T03:09:59.753Z,49.80
2019-05-02T03:10:54.626Z,49.20
2019-05-02T03:11:56.297Z,48.50
2019-05-02T03:12:54.605Z,49.20
2019-05-02T03:13:59.775Z,48.40
2019-05-02T03:14:54.584Z,48.80
2019-05-02T03:15:53.625Z,50.00
2019-05-02T03:16:53.573Z,48.60
2019-05-02T03:17:53.562Z,48.30
2019-05-02T03:18:53.543Z,48.40
2019-05-02T03:19:54.289Z,50.90
2019-05-02T03:20:54.550Z,51.30
2019-05-02T03:21:54.574Z,51.50
2019-05-02T03:22:54.507Z,49.40
2019-05-02T03:24:01.355Z,48.60
2019-05-02T03:24:54.479Z,50.30
2019-05-02T03:25:53.469Z,50.30
2019-05-02T03:26:55.145Z,48.90
2019-05-02T03:27:53.459Z,50.20
2019-05-02T03:28:58.493Z,49.40
2019-05-02T03:29:54.435Z,49.70
2019-05-02T03:30:53.418Z,47.90
2019-05-02T03:32:11.751Z,48.40
2019-05-02T03:33:06.523Z,47.70
2019-05-02T03:34:00.250Z,49.10
2019-05-02T03:34:54.548Z,47.30
2019-05-02T03:35:53.388Z,49.00
2019-05-02T03:36:53.373Z,49.20
2019-05-02T03:37:53.343Z,49.40
2019-05-02T03:38:53.331Z,50.10
2019-05-02T03:39:57.413Z,54.90
2019-05-02T03:40:53.312Z,52.30
2019-05-02T03:41:55.636Z,53.20
2019-05-02T03:42:54.290Z,51.00
2019-05-02T03:44:09.888Z,49.90
2019-05-02T03:44:56.397Z,52.20
2019-05-02T03:45:54.283Z,51.40
2019-05-02T03:46:54.406Z,49.80
2019-05-02T03:47:54.239Z,48.20
2019-05-02T03:49:05.499Z,50.40
2019-05-02T03:49:54.211Z,51.70
2019-05-02T03:50:53.210Z,51.80
2019-05-02T03:51:55.761Z,50.10
2019-05-02T03:52:54.200Z,50.30
2019-05-02T03:54:06.239Z,53.60
2019-05-02T03:54:54.158Z,52.10
2019-05-02T03:55:53.166Z,54.70
2019-05-02T03:56:53.461Z,54.40
2019-05-02T03:57:53.155Z,52.00
2019-05-02T03:58:55.910Z,50.40
2019-05-02T03:59:54.134Z,54.90
2019-05-02T04:01:00.769Z,51.90
2019-05-02T04:01:54.086Z,50.60
2019-05-02T04:03:00.097Z,54.30
2019-05-02T04:03:54.073Z,53.50
2019-05-02T04:04:59.952Z,50.30
2019-05-02T04:05:54.052Z,52.70
2019-05-02T04:06:55.038Z,54.30
2019-05-02T04:07:54.020Z,53.60
2019-05-02T04:08:59.218Z,55.50
2019-05-02T04:09:54.030Z,53.10
2019-05-02T04:10:59.391Z,52.50
2019-05-02T04:11:53.977Z,56.60
2019-05-02T04:12:58.272Z,53.60
2019-05-02T04:13:53.958Z,52.60
2019-05-02T04:14:55.530Z,53.70
2019-05-02T04:15:52.948Z,54.20
2019-05-02T04:16:55.175Z,53.00
2019-05-02T04:17:52.914Z,50.60
2019-05-02T04:18:55.677Z,52.40
2019-05-02T04:19:53.910Z,51.40
2019-05-02T04:20:52.881Z,49.80
2019-05-02T04:21:54.958Z,49.20
2019-05-02T04:22:52.863Z,47.10
2019-05-02T04:23:52.864Z,46.80
2019-05-02T04:24:54.893Z,46.60
2019-05-02T04:25:52.848Z,45.50
2019-05-02T04:26:56.053Z,47.00
2019-05-02T04:27:52.814Z,46.90
2019-05-02T04:28:53.787Z,46.00
2019-05-02T04:29:52.788Z,46.60
2019-05-02T04:30:53.982Z,43.90
2019-05-02T04:31:52.769Z,46.00
2019-05-02T04:32:55.821Z,46.10
2019-05-02T04:33:52.739Z,44.10
2019-05-02T04:34:55.643Z,44.20
2019-05-02T04:35:53.724Z,44.20
2019-05-02T04:37:00.769Z,43.50
2019-05-02T04:37:53.706Z,43.30
2019-05-02T04:38:52.958Z,43.60
2019-05-02T04:39:53.790Z,43.90
2019-05-02T04:40:53.665Z,44.30
2019-05-02T04:41:52.685Z,43.30
2019-05-02T04:43:02.092Z,43.40
2019-05-02T04:43:57.513Z,43.30
2019-05-02T04:45:14.042Z,44.20
2019-05-02T04:45:57.228Z,42.50
2019-05-02T04:46:59.966Z,43.90
2019-05-02T04:47:58.467Z,44.00
2019-05-02T04:48:53.581Z,43.90
2019-05-02T04:49:52.570Z,45.60
2019-05-02T04:50:59.449Z,43.00
2019-05-02T04:52:03.961Z,44.90
2019-05-02T04:52:54.110Z,43.20
2019-05-02T04:53:52.531Z,45.00
2019-05-02T04:54:52.519Z,43.50
2019-05-02T04:56:03.492Z,42.80
2019-05-02T04:56:55.439Z,44.90
2019-05-02T04:57:52.481Z,45.60
2019-05-02T04:58:52.478Z,44.90
2019-05-02T05:00:05.064Z,44.20
2019-05-02T05:00:58.068Z,44.30
2019-05-02T05:01:57.556Z,44.60
2019-05-02T05:02:53.441Z,45.40
2019-05-02T05:03:58.143Z,48.30
2019-05-02T05:04:53.434Z,46.30
2019-05-02T05:05:52.398Z,46.80
2019-05-02T05:06:55.886Z,45.10
2019-05-02T05:07:53.373Z,45.80
2019-05-02T05:08:52.371Z,45.70
2019-05-02T05:09:58.328Z,46.10
2019-05-02T05:10:53.352Z,47.50
2019-05-02T05:11:53.801Z,45.70
2019-05-02T05:12:53.330Z,46.60
2019-05-02T05:13:56.516Z,46.40
2019-05-02T05:14:53.299Z,46.00
2019-05-02T05:15:52.288Z,48.30
2019-05-02T05:16:55.716Z,46.70
2019-05-02T05:17:53.281Z,45.80
2019-05-02T05:18:53.305Z,46.80
2019-05-02T05:19:52.247Z,48.30
2019-05-02T05:20:53.107Z,46.60
2019-05-02T05:21:58.883Z,47.70
2019-05-02T05:22:53.216Z,46.80
2019-05-02T05:23:59.584Z,46.50
2019-05-02T05:24:53.196Z,49.60
2019-05-02T05:25:55.647Z,50.40
2019-05-02T05:26:53.164Z,47.80
2019-05-02T05:27:52.639Z,47.00
2019-05-02T05:28:53.165Z,47.10
2019-05-02T05:29:53.789Z,49.20
2019-05-02T05:30:53.122Z,49.20
2019-05-02T05:31:55.208Z,48.40
2019-05-02T05:32:53.119Z,48.60
2019-05-02T05:33:52.093Z,50.40
2019-05-02T05:34:52.100Z,50.70
2019-05-02T05:35:52.707Z,49.10
2019-05-02T05:36:52.060Z,49.30
2019-05-02T05:37:53.287Z,48.80
2019-05-02T05:38:52.039Z,49.40
2019-05-02T05:39:52.627Z,48.60
2019-05-02T05:40:52.040Z,48.30
2019-05-02T05:41:52.506Z,49.30
2019-05-02T05:42:52.008Z,50.00
2019-05-02T05:43:53.685Z,52.80
2019-05-02T05:44:51.976Z,52.10
2019-05-02T05:47:00.886Z,52.40
2019-05-02T05:48:01.198Z,52.20
2019-05-02T05:49:00.843Z,50.70
2019-05-02T05:50:01.177Z,52.10
2019-05-02T05:51:00.822Z,50.40
2019-05-02T05:52:03.771Z,52.00
2019-05-02T05:53:00.797Z,52.10
2019-05-02T05:54:03.065Z,50.80
2019-05-02T05:55:00.761Z,51.10
2019-05-02T05:56:02.474Z,47.80
2019-05-02T05:57:00.749Z,48.20
2019-05-02T05:58:11.855Z,51.00
2019-05-02T05:59:01.739Z,49.30
2019-05-02T06:00:03.990Z,47.80
2019-05-02T06:01:01.699Z,48.40
2019-05-02T06:02:05.443Z,50.60
2019-05-02T06:03:10.901Z,48.20
2019-05-02T06:04:01.688Z,47.80
2019-05-02T06:05:03.767Z,49.90
2019-05-02T06:06:00.656Z,47.70
2019-05-02T06:07:03.178Z,47.50
2019-05-02T06:08:00.636Z,47.90
2019-05-02T06:09:00.628Z,49.60
2019-05-02T06:10:02.427Z,47.90
2019-05-02T06:11:01.595Z,48.20
2019-05-02T06:12:00.585Z,47.70
2019-05-02T06:13:00.577Z,47.90
2019-05-02T06:14:00.571Z,48.20
2019-05-02T06:15:01.605Z,46.30
2019-05-02T06:16:02.697Z,46.10
2019-05-02T06:17:00.535Z,47.60
2019-05-02T06:18:04.844Z,45.80
2019-05-02T06:19:00.513Z,45.70
2019-05-02T06:20:00.512Z,45.90
2019-05-02T06:21:03.327Z,46.70
2019-05-02T06:22:01.490Z,46.40
2019-05-02T06:23:01.345Z,44.90
2019-05-02T06:24:00.471Z,46.10
2019-05-02T06:25:00.452Z,46.80
2019-05-02T06:26:00.462Z,48.00
2019-05-02T06:27:00.434Z,45.70
2019-05-02T06:28:05.203Z,43.70
2019-05-02T06:29:01.411Z,45.70
2019-05-02T06:30:00.399Z,45.30
2019-05-02T06:31:02.254Z,46.20
2019-05-02T06:32:01.383Z,47.30
2019-05-02T06:33:00.402Z,47.20
2019-05-02T06:34:02.025Z,47.10
2019-05-02T06:35:01.345Z,46.30
2019-05-02T06:36:01.463Z,46.80
2019-05-02T06:37:00.336Z,47.40
2019-05-02T06:38:00.317Z,45.80
2019-05-02T06:39:00.306Z,47.60
2019-05-02T06:40:03.257Z,47.80
2019-05-02T06:41:01.296Z,47.40
2019-05-02T06:42:00.267Z,47.90
2019-05-02T06:43:04.331Z,49.30
2019-05-02T06:44:01.257Z,47.80
2019-05-02T06:45:01.122Z,47.10
2019-05-02T06:46:00.226Z,48.50
2019-05-02T06:47:04.164Z,48.00
2019-05-02T06:48:01.338Z,49.10
2019-05-02T06:49:00.196Z,49.10
2019-05-02T06:50:01.195Z,50.30
2019-05-02T06:51:00.195Z,48.60
2019-05-02T06:52:00.168Z,50.30
2019-05-02T06:53:04.452Z,51.60
2019-05-02T06:54:01.154Z,51.80
2019-05-02T06:55:00.135Z,51.10
2019-05-02T06:56:00.151Z,52.00
2019-05-02T06:57:00.103Z,52.20
2019-05-02T06:58:02.856Z,51.30
2019-05-02T06:59:01.080Z,50.80
2019-05-02T07:00:00.083Z,49.50
2019-05-02T07:01:00.083Z,51.20
2019-05-02T07:02:00.061Z,52.60
2019-05-02T07:03:00.049Z,51.00
2019-05-02T07:04:00.030Z,49.60
2019-05-02T07:05:00.039Z,49.80
2019-05-02T07:06:02.677Z,50.80
2019-05-02T07:07:00.310Z,52.00
2019-05-02T07:08:00.062Z,52.00
2019-05-02T07:09:00.023Z,50.80
2019-05-02T07:09:59.992Z,52.00
2019-05-02T07:11:01.219Z,52.70
2019-05-02T07:12:01.619Z,52.20
2019-05-02T07:13:10.155Z,52.50
2019-05-02T07:14:12.635Z,52.50
2019-05-02T07:15:01.647Z,51.60
2019-05-02T07:15:59.928Z,53.50
2019-05-02T07:16:59.896Z,52.10
2019-05-02T07:17:59.885Z,52.10
2019-05-02T07:18:59.885Z,52.30
2019-05-02T07:20:03.891Z,52.00
2019-05-02T07:21:00.847Z,53.00
2019-05-02T07:22:04.017Z,52.70
2019-05-02T07:22:59.828Z,52.20
2019-05-02T07:23:59.826Z,52.60
2019-05-02T07:25:01.778Z,51.80
2019-05-02T07:26:00.795Z,54.00
2019-05-02T07:27:02.148Z,54.20
2019-05-02T07:27:59.774Z,54.70
2019-05-02T07:28:59.773Z,53.00
2019-05-02T07:29:59.763Z,54.40
2019-05-02T07:30:59.831Z,53.90
2019-05-02T07:31:59.732Z,55.00
2019-05-02T07:33:01.208Z,53.70
2019-05-02T07:33:59.713Z,56.30
2019-05-02T07:34:59.698Z,56.10
2019-05-02T07:36:00.120Z,55.30
2019-05-02T07:36:59.680Z,56.40
2019-05-02T07:37:59.669Z,54.90
2019-05-02T07:39:05.217Z,57.20
2019-05-02T07:40:00.649Z,55.30
2019-05-02T07:40:59.653Z,54.30
2019-05-02T07:42:00.507Z,56.10
2019-05-02T07:43:00.618Z,56.30
2019-05-02T07:43:59.611Z,57.90
2019-05-02T07:44:59.598Z,56.90
2019-05-02T07:45:59.597Z,56.40
2019-05-02T07:47:02.454Z,55.20
2019-05-02T07:48:01.447Z,56.90
2019-05-02T07:48:59.547Z,57.50
2019-05-02T07:49:59.678Z,56.60
2019-05-02T07:50:59.545Z,57.70
2019-05-02T07:51:59.515Z,60.40
2019-05-02T07:52:59.528Z,58.00
2019-05-02T07:53:59.485Z,58.90
2019-05-02T07:55:01.025Z,59.50
2019-05-02T07:55:59.522Z,59.50
2019-05-02T07:57:02.198Z,58.30
2019-05-02T07:58:02.006Z,61.00
2019-05-02T07:59:00.441Z,59.20
2019-05-02T08:00:00.497Z,59.40
2019-05-02T08:00:59.431Z,60.40
2019-05-02T08:01:59.431Z,59.10
2019-05-02T08:02:59.463Z,60.00
2019-05-02T08:04:04.397Z,57.30
2019-05-02T08:04:59.402Z,58.50
2019-05-02T08:05:59.960Z,57.40
2019-05-02T08:06:59.365Z,58.80
2019-05-02T08:07:59.369Z,57.30
2019-05-02T08:09:01.591Z,58.70
2019-05-02T08:10:00.329Z,57.90
2019-05-02T08:11:01.686Z,56.10
2019-05-02T08:11:59.336Z,57.50
2019-05-02T08:12:59.312Z,55.30
2019-05-02T08:14:00.620Z,59.60
2019-05-02T08:15:00.384Z,59.80
2019-05-02T08:15:59.297Z,59.70
2019-05-02T08:17:05.605Z,58.50
2019-05-02T08:18:00.265Z,57.40
2019-05-02T08:19:01.422Z,57.90
2019-05-02T08:20:00.218Z,57.20
2019-05-02T08:21:00.380Z,56.10
2019-05-02T08:21:59.195Z,56.70
2019-05-02T08:22:59.188Z,55.90
2019-05-02T08:24:02.162Z,56.60
2019-05-02T08:24:59.177Z,58.10
2019-05-02T08:25:59.152Z,55.90
2019-05-02T08:26:59.609Z,58.80
2019-05-02T08:27:59.151Z,56.80
2019-05-02T08:28:59.132Z,57.70
2019-05-02T08:30:00.107Z,58.50
2019-05-02T08:30:59.104Z,56.70
2019-05-02T08:31:59.083Z,60.60
2019-05-02T08:32:59.082Z,59.50
2019-05-02T08:33:59.101Z,59.50
2019-05-02T08:34:59.083Z,61.40
2019-05-02T08:35:59.055Z,60.40
2019-05-02T08:37:03.143Z,59.60
2019-05-02T08:38:00.029Z,59.80
2019-05-02T08:38:59.034Z,61.00
2019-05-02T08:39:59.021Z,61.60
2019-05-02T08:40:59.031Z,61.20
2019-05-02T08:41:58.987Z,60.40
2019-05-02T08:43:03.482Z,62.10
2019-05-02T08:43:59.957Z,64.30
2019-05-02T08:45:01.030Z,59.90
2019-05-02T08:45:58.946Z,63.50
2019-05-02T08:46:58.937Z,64.70
2019-05-02T08:48:00.171Z,61.70
2019-05-02T08:48:59.945Z,65.50
2019-05-02T08:49:58.896Z,65.90
2019-05-02T08:50:58.900Z,63.30
2019-05-02T08:51:58.926Z,65.40
2019-05-02T08:52:58.909Z,63.10
2019-05-02T08:53:58.879Z,65.10
2019-05-02T08:54:58.884Z,65.40
2019-05-02T08:55:58.835Z,66.60
2019-05-02T08:57:00.450Z,64.80
2019-05-02T08:57:58.812Z,66.50
2019-05-02T08:58:58.818Z,61.60
2019-05-02T09:00:00.268Z,65.50
2019-05-02T09:00:58.791Z,65.50
2019-05-02T09:01:58.772Z,67.30
2019-05-02T09:03:02.751Z,67.80
2019-05-02T09:03:59.765Z,65.40
2019-05-02T09:04:59.266Z,64.20
2019-05-02T09:06:05.595Z,67.00
2019-05-02T09:07:00.768Z,61.90
2019-05-02T09:07:58.698Z,64.40
2019-05-02T09:08:58.698Z,64.50
2019-05-02T09:10:00.179Z,62.90
2019-05-02T09:10:59.676Z,66.30
2019-05-02T09:12:09.724Z,66.10
2019-05-02T09:12:59.659Z,67.40
2019-05-02T09:13:58.657Z,66.70
2019-05-02T09:14:58.647Z,70.40
2019-05-02T09:15:58.616Z,70.50
2019-05-02T09:17:00.149Z,68.50
2019-05-02T09:17:59.597Z,70.70
2019-05-02T09:18:58.595Z,68.30
2019-05-02T09:20:02.336Z,68.50
2019-05-02T09:20:59.567Z,69.40
2019-05-02T09:21:58.552Z,68.30
2019-05-02T09:22:58.554Z,70.50
2019-05-02T09:23:58.535Z,68.60
2019-05-02T09:24:58.525Z,68.90
2019-05-02T09:25:58.524Z,66.60
2019-05-02T09:26:58.511Z,66.60
2019-05-02T09:27:58.500Z,68.00
2019-05-02T09:29:01.661Z,69.00
2019-05-02T09:29:59.495Z,65.60
2019-05-02T09:31:04.983Z,66.80
2019-05-02T09:31:59.452Z,65.60
2019-05-02T09:33:04.889Z,68.00
2019-05-02T09:33:59.429Z,68.40
2019-05-02T09:35:02.194Z,66.60
2019-05-02T09:35:59.407Z,68.80
2019-05-02T09:36:58.397Z,69.00
2019-05-02T09:37:58.377Z,69.30
2019-05-02T09:38:58.378Z,69.30
2019-05-02T09:39:58.367Z,68.00
2019-05-02T09:40:58.357Z,67.20
2019-05-02T09:41:58.355Z,67.60
2019-05-02T09:43:01.967Z,66.10
2019-05-02T09:43:59.355Z,60.70
2019-05-02T09:44:58.316Z,64.60
2019-05-02T09:45:58.326Z,66.80
2019-05-02T09:46:58.322Z,64.90
2019-05-02T09:48:05.099Z,66.70
2019-05-02T09:49:04.238Z,65.40
2019-05-02T09:49:59.253Z,65.70
2019-05-02T09:50:58.582Z,64.50
2019-05-02T09:52:00.864Z,61.40
2019-05-02T09:52:58.231Z,63.30
2019-05-02T09:54:02.634Z,63.00
2019-05-02T09:54:59.203Z,63.80
2019-05-02T09:55:58.210Z,59.10
2019-05-02T09:56:58.180Z,61.00
2019-05-02T09:57:58.178Z,58.40
2019-05-02T09:59:06.249Z,58.60
2019-05-02T09:59:59.159Z,58.00
2019-05-02T10:00:58.138Z,59.70
2019-05-02T10:01:58.139Z,58.20
2019-05-02T10:02:58.147Z,59.10
2019-05-02T10:03:58.117Z,59.20
2019-05-02T10:04:58.098Z,57.90
2019-05-02T10:05:58.092Z,58.30
2019-05-02T10:06:59.196Z,56.10
2019-05-02T10:08:03.230Z,54.00
2019-05-02T10:08:59.069Z,55.40
2019-05-02T10:10:03.160Z,55.50
2019-05-02T10:10:59.035Z,53.50
2019-05-02T10:11:58.052Z,53.30
2019-05-02T10:12:58.012Z,51.30
2019-05-02T10:13:58.025Z,51.50
2019-05-02T10:14:57.993Z,49.50
2019-05-02T10:15:57.981Z,49.90
2019-05-02T10:17:03.073Z,49.10
2019-05-02T10:18:08.821Z,51.10
2019-05-02T10:19:00.380Z,49.60
2019-05-02T10:19:58.942Z,50.40
2019-05-02T10:20:57.932Z,50.30
2019-05-02T10:21:57.931Z,49.60
2019-05-02T10:22:57.925Z,48.60
2019-05-02T10:23:59.296Z,51.70
2019-05-02T10:24:57.893Z,49.50
2019-05-02T10:25:57.880Z,58.90
2019-05-02T10:27:04.282Z,51.10
2019-05-02T10:27:58.886Z,50.40
2019-05-02T10:28:57.847Z,49.50
2019-05-02T10:30:08.105Z,51.50
2019-05-02T10:30:58.826Z,52.00
2019-05-02T10:31:57.814Z,51.90
2019-05-02T10:32:57.822Z,59.10
2019-05-02T10:33:58.754Z,52.80
2019-05-02T10:34:57.786Z,51.20
2019-05-02T10:35:57.767Z,46.70
2019-05-02T10:36:59.056Z,45.50
2019-05-02T10:37:57.743Z,45.90
2019-05-02T10:38:59.321Z,44.40
2019-05-02T10:39:57.734Z,47.00
2019-05-02T10:41:01.764Z,45.50
2019-05-02T10:41:58.702Z,46.80
2019-05-02T10:42:57.692Z,47.10
2019-05-02T10:43:59.610Z,48.80
2019-05-02T10:44:57.671Z,48.30
2019-05-02T10:45:57.661Z,48.50
2019-05-02T10:46:57.650Z,47.10
2019-05-02T10:47:57.641Z,47.10
2019-05-02T10:48:57.640Z,48.90
2019-05-02T10:49:57.634Z,48.70
2019-05-02T10:50:57.598Z,48.60
2019-05-02T10:51:58.252Z,46.80
2019-05-02T10:52:57.593Z,48.40
2019-05-02T10:53:57.577Z,47.30
2019-05-02T10:54:57.567Z,44.40
2019-05-02T10:55:57.548Z,46.30
2019-05-02T10:56:57.536Z,45.00
2019-05-02T10:57:57.526Z,43.50
2019-05-02T10:58:57.526Z,43.80
2019-05-02T10:59:57.517Z,45.00
2019-05-02T11:00:57.507Z,44.60
2019-05-02T11:01:57.506Z,47.20
2019-05-02T11:02:57.474Z,47.80
2019-05-02T11:03:57.464Z,49.40
2019-05-02T11:04:57.453Z,49.80
2019-05-02T11:05:57.967Z,50.40
2019-05-02T11:06:58.443Z,52.00
2019-05-02T11:08:04.683Z,52.70
2019-05-02T11:08:58.419Z,52.40
2019-05-02T11:10:02.134Z,53.00
2019-05-02T11:10:58.401Z,55.00
2019-05-02T11:11:57.381Z,50.90
2019-05-02T11:12:57.390Z,53.40
2019-05-02T11:14:00.726Z,52.30
2019-05-02T11:14:58.349Z,52.30
2019-05-02T11:15:57.350Z,52.60
2019-05-02T11:16:57.319Z,51.80
2019-05-02T11:17:57.338Z,52.90
2019-05-02T11:18:57.309Z,54.80
2019-05-02T11:19:57.287Z,52.90
2019-05-02T11:20:58.985Z,52.30
2019-05-02T11:21:59.203Z,53.60
2019-05-02T11:22:57.275Z,54.00
2019-05-02T11:23:57.452Z,50.90
2019-05-02T11:24:57.254Z,50.70
2019-05-02T11:25:57.239Z,51.30
2019-05-02T11:26:57.229Z,52.40
2019-05-02T11:28:01.561Z,52.30
2019-05-02T11:28:58.207Z,53.80
2019-05-02T11:29:57.208Z,52.40
2019-05-02T11:31:01.499Z,54.50
2019-05-02T11:31:58.181Z,51.60
2019-05-02T11:32:57.167Z,50.00
2019-05-02T11:33:57.152Z,50.60
2019-05-02T11:34:57.131Z,48.40
2019-05-02T11:35:57.125Z,48.40
2019-05-02T11:36:57.133Z,48.00
2019-05-02T11:37:57.101Z,49.90
2019-05-02T11:39:08.497Z,48.10
2019-05-02T11:40:01.120Z,49.40
2019-05-02T11:40:57.069Z,50.60
2019-05-02T11:41:57.070Z,50.70
2019-05-02T11:43:01.458Z,51.30
2019-05-02T11:43:58.046Z,50.10
2019-05-02T11:44:57.028Z,49.30
2019-05-02T11:46:02.560Z,48.90
2019-05-02T11:46:58.016Z,49.30
2019-05-02T11:48:01.696Z,48.50
2019-05-02T11:48:58.636Z,48.00
2019-05-02T11:49:56.976Z,47.40
2019-05-02T11:50:58.107Z,47.50
2019-05-02T11:51:57.353Z,47.40
2019-05-02T11:52:56.975Z,47.30
2019-05-02T11:53:59.242Z,45.40
2019-05-02T11:54:57.926Z,46.00
2019-05-02T11:55:58.380Z,46.60
2019-05-02T11:56:57.934Z,45.70
2019-05-02T11:58:01.033Z,39.30
2019-05-02T11:58:57.883Z,40.90
2019-05-02T11:59:59.401Z,40.10
2019-05-02T12:00:57.862Z,36.90
2019-05-02T12:01:59.993Z,36.90
2019-05-02T12:02:58.355Z,35.30
2019-05-02T12:03:56.832Z,31.60
2019-05-02T12:04:56.861Z,34.00
2019-05-02T12:05:56.810Z,31.90
2019-05-02T12:07:01.517Z,31.40
2019-05-02T12:08:00.818Z,27.40
2019-05-02T12:08:57.779Z,26.10
2019-05-02T12:09:57.297Z,23.90
2019-05-02T12:10:56.750Z,23.60
2019-05-02T12:11:56.813Z,22.30
2019-05-02T12:12:56.735Z,24.30
2019-05-02T12:13:57.127Z,24.40
2019-05-02T12:14:56.708Z,24.70
2019-05-02T12:15:56.700Z,22.90
2019-05-02T12:16:56.718Z,24.60
2019-05-02T12:17:56.691Z,24.20
2019-05-02T12:19:08.586Z,25.60
2019-05-02T12:19:57.665Z,23.80
2019-05-02T12:20:56.683Z,25.40
2019-05-02T12:21:56.657Z,25.90
2019-05-02T12:22:56.625Z,27.10
2019-05-02T12:23:56.623Z,25.90
2019-05-02T12:24:56.611Z,26.80
2019-05-02T12:25:56.594Z,27.30
2019-05-02T12:26:56.622Z,27.20
2019-05-02T12:27:56.752Z,26.00
2019-05-02T12:28:56.561Z,26.70
2019-05-02T12:29:57.677Z,27.80
2019-05-02T12:30:56.553Z,28.00
2019-05-02T12:31:56.578Z,28.00
2019-05-02T12:32:56.520Z,28.50
2019-05-02T12:33:56.511Z,28.40
2019-05-02T12:34:56.519Z,28.60
2019-05-02T12:35:56.501Z,29.60
2019-05-02T12:36:56.468Z,30.70
2019-05-02T12:37:56.460Z,29.70
2019-05-02T12:38:57.691Z,31.10
2019-05-02T12:39:56.453Z,33.00
2019-05-02T12:40:58.014Z,31.90
2019-05-02T12:41:56.713Z,34.30
2019-05-02T12:42:56.408Z,35.40
2019-05-02T12:43:56.407Z,35.10
2019-05-02T12:44:56.418Z,35.50
2019-05-02T12:45:56.390Z,36.50
2019-05-02T12:46:56.367Z,36.90
2019-05-02T12:47:56.356Z,36.40
2019-05-02T12:48:56.347Z,38.50
2019-05-02T12:49:56.365Z,38.10
2019-05-02T12:50:56.357Z,39.00
2019-05-02T12:51:56.313Z,41.00
2019-05-02T12:52:56.351Z,39.80
2019-05-02T12:53:56.292Z,41.70